EGXW/WTN METAR and TAF weather

Enter ICAO airport designator
Station Type Date Time Source
EGXW METAR 2018/01/22 10:50 UTC NOAA

EGXW 221050Z 26011KT 9999 FEW018 BKN250 07/04 Q1008 BLU NOSIG


Station Type Date Time Source
EGXW Decoded METAR 2018/01/22 10:50 UTC NOAA

Waddington, United Kingdom (EGXW) 53-10N 000-31W 0M
Jan 22, 2018 - 05:50 AM EST / 2018.01.22 1050 UTC
Wind: from the W (260 degrees) at 13 MPH (11 KT):0
Visibility: greater than 7 mile(s):0
Sky conditions: mostly cloudy
Temperature: 44 F (7 C)
Dew Point: 39 F (4 C)
Relative Humidity: 81%
Pressure (altimeter): 29.77 in. Hg (1008 hPa)
ob: EGXW 221050Z 26011KT 9999 FEW018 BKN250 07/04 Q1008 BLU NOSIG
cycle: 11

Station Type Date Time Source
EGXW TAF 2018/01/22 12:03 UTC NOAA

TAF EGXW 221048Z 2212/2306 27012KT 9999 FEW045 PROB30
TEMPO 2212/2214 SCT020


Example: see airport list